Time,TemperatureF,DewpointF,PressureIn,WindDirection,WindDirectionDegrees,WindSpeedMPH,WindSpeedGustMPH,Humidity,HourlyPrecipIn,Conditions,Clouds,dailyrainin,SoftwareType,DateUTC
2013-07-21 00:01:00,79.7,72.2,30.04,West,261,6.0,18.0,78,0.00,,SKC,0.00,VWS V13.00,2013-07-21 04:01:00,
2013-07-21 00:06:00,79.7,72.2,30.05,West,270,15.0,18.0,78,0.00,,SKC,0.00,VWS V13.00,2013-07-21 04:06:00,
2013-07-21 00:11:00,79.7,72.2,30.05,WSW,242,7.0,19.0,78,0.00,,SKC,0.00,VWS V13.00,2013-07-21 04:11:00,
2013-07-21 00:16:00,79.8,72.3,30.05,West,267,14.0,18.0,78,0.00,,SKC,0.00,VWS V13.00,2013-07-21 04:16:00,
2013-07-21 00:21:00,79.8,72.3,30.05,WSW,246,9.0,15.0,78,0.00,,SKC,0.00,VWS V13.00,2013-07-21 04:21:00,
2013-07-21 00:26:00,79.8,72.3,30.05,West,259,10.0,17.0,78,0.00,,SKC,0.00,VWS V13.00,2013-07-21 04:26:00,
2013-07-21 00:31:00,79.9,72.4,30.05,WSW,247,12.0,16.0,78,0.00,,SKC,0.00,VWS V13.00,2013-07-21 04:31:00,
2013-07-21 00:36:00,79.9,72.4,30.05,SSW,211,10.0,15.0,78,0.00,,SKC,0.00,VWS V13.00,2013-07-21 04:36:00,
2013-07-21 00:41:00,79.9,72.4,30.05,SW,216,6.0,18.0,78,0.00,,SKC,0.00,VWS V13.00,2013-07-21 04:41:00,
2013-07-21 00:46:00,80.0,72.5,30.05,WSW,256,9.0,19.0,78,0.00,,SKC,0.00,VWS V13.00,2013-07-21 04:46:00,
2013-07-21 00:51:00,80.0,72.5,30.05,West,259,7.0,15.0,78,0.00,,SKC,0.00,VWS V13.00,2013-07-21 04:51:00,
2013-07-21 00:56:00,80.0,72.5,30.05,SW,235,7.0,18.0,78,0.00,,SKC,0.00,VWS V13.00,2013-07-21 04:56:00,
2013-07-21 01:01:00,80.0,72.5,30.05,SW,236,9.0,17.0,78,0.00,,SKC,0.00,VWS V13.00,2013-07-21 05:01:00,
2013-07-21 01:06:00,80.0,72.5,30.05,SW,231,6.0,18.0,78,0.00,,SKC,0.00,VWS V13.00,2013-07-21 05:06:00,
2013-07-21 01:11:00,80.0,72.5,30.05,WSW,258,15.0,17.0,78,0.00,,SKC,0.00,VWS V13.00,2013-07-21 05:11:00,
2013-07-21 01:16:00,80.0,72.9,30.04,WSW,251,7.0,15.0,79,0.00,,SKC,0.00,VWS V13.00,2013-07-21 05:16:00,
2013-07-21 01:21:00,80.0,72.9,30.04,WSW,238,6.0,15.0,79,0.00,,SKC,0.00,VWS V13.00,2013-07-21 05:21:00,
2013-07-21 01:26:00,80.0,72.9,30.04,West,268,5.0,16.0,79,0.00,,SKC,0.00,VWS V13.00,2013-07-21 05:26:00,
2013-07-21 01:31:00,80.0,72.9,30.04,West,267,7.0,13.0,79,0.00,,SKC,0.00,VWS V13.00,2013-07-21 05:31:00,
2013-07-21 01:36:00,80.0,72.9,30.04,WSW,241,9.0,16.0,79,0.00,,SKC,0.00,VWS V13.00,2013-07-21 05:36:00,
2013-07-21 01:41:00,80.0,72.9,30.04,WSW,238,7.0,17.0,79,0.00,,SKC,0.00,VWS V13.00,2013-07-21 05:41:00,
2013-07-21 01:46:00,80.0,72.9,30.04,SW,222,8.0,14.0,79,0.00,,SKC,0.00,VWS V13.00,2013-07-21 05:46:00,
2013-07-21 01:51:00,80.0,72.9,30.04,SW,234,10.0,14.0,79,0.00,,SKC,0.00,VWS V13.00,2013-07-21 05:51:00,
2013-07-21 01:56:00,80.0,72.9,30.04,SW,225,8.0,14.0,79,0.00,,SKC,0.00,VWS V13.00,2013-07-21 05:56:00,
2013-07-21 02:01:00,80.0,72.9,30.04,SSW,200,10.0,14.0,79,0.00,,SKC,0.00,VWS V13.00,2013-07-21 06:01:00,
2013-07-21 02:06:00,80.0,72.9,30.03,WSW,253,7.0,16.0,79,0.00,,SKC,0.00,VWS V13.00,2013-07-21 06:06:00,
2013-07-21 02:11:00,79.9,72.8,30.03,West,261,9.0,14.0,79,0.00,,SKC,0.00,VWS V13.00,2013-07-21 06:11:00,
2013-07-21 02:16:00,79.8,72.7,30.03,SW,229,6.0,16.0,79,0.00,,SKC,0.00,VWS V13.00,2013-07-21 06:16:00,
2013-07-21 02:21:00,79.6,72.5,30.03,SSW,200,8.0,13.0,79,0.00,,SKC,0.00,VWS V13.00,2013-07-21 06:21:00,
2013-07-21 02:26:00,79.4,72.3,30.03,SW,233,8.0,12.0,79,0.00,,SKC,0.00,VWS V13.00,2013-07-21 06:26:00,
2013-07-21 02:31:00,79.3,72.2,30.03,WSW,257,5.0,11.0,79,0.00,,SKC,0.00,VWS V13.00,2013-07-21 06:31:00,
2013-07-21 02:36:00,79.2,72.1,30.02,WSW,240,11.0,15.0,79,0.00,,SKC,0.00,VWS V13.00,2013-07-21 06:36:00,
2013-07-21 02:41:00,79.0,71.9,30.02,SSW,201,6.0,13.0,79,0.00,,SKC,0.00,VWS V13.00,2013-07-21 06:41:00,
2013-07-21 02:46:00,78.9,71.8,30.02,SSW,211,9.0,12.0,79,0.00,,SKC,0.00,VWS V13.00,2013-07-21 06:46:00,
2013-07-21 02:51:00,78.7,71.6,30.02,WSW,237,9.0,15.0,79,0.00,,SKC,0.00,VWS V13.00,2013-07-21 06:51:00,
2013-07-21 02:56:00,78.6,71.6,30.02,SSW,194,13.0,15.0,79,0.00,,SKC,0.00,VWS V13.00,2013-07-21 06:56:00,
2013-07-21 03:01:00,78.4,71.3,30.02,SW,224,5.0,16.0,79,0.00,,SKC,0.00,VWS V13.00,2013-07-21 07:01:00,
2013-07-21 03:06:00,78.2,71.2,30.02,SSW,196,10.0,17.0,79,0.00,,SKC,0.00,VWS V13.00,2013-07-21 07:06:00,
2013-07-21 03:11:00,78.1,71.1,30.02,WSW,241,12.0,16.0,79,0.00,,SKC,0.00,VWS V13.00,2013-07-21 07:11:00,
2013-07-21 03:16:00,78.1,71.1,30.02,WSW,246,6.0,17.0,79,0.00,,SKC,0.00,VWS V13.00,2013-07-21 07:16:00,
2013-07-21 03:21:00,78.1,71.1,30.02,SW,229,9.0,15.0,79,0.00,,SKC,0.00,VWS V13.00,2013-07-21 07:21:00,
2013-07-21 03:26:00,78.1,71.1,30.01,WSW,247,6.0,17.0,79,0.00,,SKC,0.00,VWS V13.00,2013-07-21 07:26:00,
2013-07-21 03:31:00,78.0,71.0,30.01,SW,225,8.0,14.0,79,0.00,,SKC,0.00,VWS V13.00,2013-07-21 07:31:00,
2013-07-21 03:36:00,78.0,71.0,30.01,SW,235,8.0,15.0,79,0.00,,SKC,0.00,VWS V13.00,2013-07-21 07:36:00,
2013-07-21 03:41:00,77.9,70.5,30.01,SW,236,11.0,15.0,78,0.00,,SKC,0.00,VWS V13.00,2013-07-21 07:41:00,
2013-07-21 03:46:00,77.9,70.5,30.01,South,188,8.0,17.0,78,0.00,,SKC,0.00,VWS V13.00,2013-07-21 07:46:00,
2013-07-21 03:51:00,78.0,71.0,30.01,SW,221,2.0,14.0,79,0.00,,SKC,0.00,VWS V13.00,2013-07-21 07:51:00,
2013-07-21 03:56:00,78.3,71.3,30.01,SSW,207,6.0,14.0,79,0.00,,SKC,0.00,VWS V13.00,2013-07-21 07:56:00,
2013-07-21 04:01:00,78.5,71.4,30.01,SSW,204,5.0,16.0,79,0.00,,SKC,0.00,VWS V13.00,2013-07-21 08:01:00,
2013-07-21 04:06:00,78.7,71.6,30.01,WSW,248,5.0,14.0,79,0.00,,SKC,0.00,VWS V13.00,2013-07-21 08:06:00,
2013-07-21 04:11:00,78.9,71.8,30.01,SW,215,10.0,14.0,79,0.00,,SKC,0.00,VWS V13.00,2013-07-21 08:11:00,
2013-07-21 04:16:00,79.2,72.1,30.00,SW,230,6.0,14.0,79,0.00,,SKC,0.00,VWS V13.00,2013-07-21 08:16:00,
2013-07-21 04:21:00,79.3,72.2,30.00,SSW,200,12.0,16.0,79,0.00,,SKC,0.00,VWS V13.00,2013-07-21 08:21:00,
2013-07-21 04:26:00,79.4,72.3,30.00,WSW,239,12.0,17.0,79,0.00,,SKC,0.00,VWS V13.00,2013-07-21 08:26:00,
2013-07-21 04:31:00,79.3,72.2,30.00,SW,234,11.0,15.0,79,0.00,,SKC,0.00,VWS V13.00,2013-07-21 08:31:00,
2013-07-21 04:36:00,79.2,72.1,30.00,SW,223,9.0,18.0,79,0.00,,SKC,0.00,VWS V13.00,2013-07-21 08:36:00,
2013-07-21 04:41:00,79.0,71.9,30.00,SW,229,12.0,18.0,79,0.00,,SKC,0.00,VWS V13.00,2013-07-21 08:41:00,
2013-07-21 04:46:00,78.9,71.8,30.00,SW,225,8.0,11.0,79,0.00,,SKC,0.00,VWS V13.00,2013-07-21 08:46:00,
2013-07-21 04:51:00,78.7,71.6,30.00,SW,231,7.0,17.0,79,0.00,,SKC,0.00,VWS V13.00,2013-07-21 08:51:00,
2013-07-21 04:56:00,78.7,71.6,30.00,SW,222,14.0,14.0,79,0.00,,SKC,0.00,VWS V13.00,2013-07-21 08:56:00,
2013-07-21 05:01:00,78.5,71.4,30.00,WSW,241,8.0,15.0,79,0.00,,SKC,0.00,VWS V13.00,2013-07-21 09:01:00,
2013-07-21 05:06:00,78.6,71.6,30.00,SW,230,10.0,13.0,79,0.00,,SKC,0.00,VWS V13.00,2013-07-21 09:06:00,
2013-07-21 05:11:00,78.5,71.4,30.00,WSW,243,7.0,11.0,79,0.00,,SKC,0.00,VWS V13.00,2013-07-21 09:11:00,
2013-07-21 05:16:00,78.5,71.4,30.00,SW,218,4.0,14.0,79,0.00,,SKC,0.00,VWS V13.00,2013-07-21 09:16:00,
2013-07-21 05:21:00,78.5,71.4,30.00,WSW,238,8.0,11.0,79,0.00,,SKC,0.00,VWS V13.00,2013-07-21 09:21:00,
2013-07-21 05:26:00,78.4,71.3,30.00,SW,232,5.0,10.0,79,0.00,,SKC,0.00,VWS V13.00,2013-07-21 09:26:00,
2013-07-21 05:31:00,78.4,71.3,30.01,WSW,250,6.0,9.0,79,0.00,,SKC,0.00,VWS V13.00,2013-07-21 09:31:00,
2013-07-21 05:36:00,78.4,71.3,30.01,West,271,6.0,12.0,79,0.00,,SKC,0.00,VWS V13.00,2013-07-21 09:36:00,
2013-07-21 05:41:00,78.3,71.3,30.01,WSW,247,5.0,11.0,79,0.00,,SKC,0.00,VWS V13.00,2013-07-21 09:41:00,
2013-07-21 05:46:00,78.3,71.3,30.01,SW,224,6.0,10.0,79,0.00,,SKC,0.00,VWS V13.00,2013-07-21 09:46:00,
2013-07-21 05:51:00,78.2,71.2,30.01,WSW,239,7.0,15.0,79,0.00,,SKC,0.00,VWS V13.00,2013-07-21 09:51:00,
2013-07-21 05:56:00,78.2,71.2,30.01,SSW,211,4.0,10.0,79,0.00,,SKC,0.00,VWS V13.00,2013-07-21 09:56:00,
2013-07-21 06:01:00,78.2,71.2,30.01,SW,231,9.0,12.0,79,0.00,,SKC,0.00,VWS V13.00,2013-07-21 10:01:00,
2013-07-21 06:06:00,78.2,71.2,30.01,SW,232,6.0,10.0,79,0.00,,SKC,0.00,VWS V13.00,2013-07-21 10:06:00,
2013-07-21 06:11:00,78.2,71.5,30.01,SW,215,4.0,12.0,80,0.00,,SKC,0.00,VWS V13.00,2013-07-21 10:11:00,
2013-07-21 06:16:00,78.2,71.5,30.02,SW,217,7.0,10.0,80,0.00,,SKC,0.00,VWS V13.00,2013-07-21 10:16:00,
2013-07-21 06:21:00,78.3,71.6,30.02,SW,215,7.0,11.0,80,0.00,,SKC,0.00,VWS V13.00,2013-07-21 10:21:00,
2013-07-21 06:26:00,78.4,71.7,30.02,West,281,4.0,11.0,80,0.00,,SKC,0.00,VWS V13.00,2013-07-21 10:26:00,
2013-07-21 06:31:00,78.5,71.8,30.02,SSW,209,5.0,11.0,80,0.00,,SKC,0.00,VWS V13.00,2013-07-21 10:31:00,
2013-07-21 06:36:00,78.5,71.8,30.02,SW,227,3.0,11.0,80,0.00,,SKC,0.00,VWS V13.00,2013-07-21 10:36:00,
2013-07-21 06:41:00,78.5,71.8,30.02,WSW,250,3.0,10.0,80,0.00,,SKC,0.00,VWS V13.00,2013-07-21 10:41:00,
2013-07-21 06:46:00,78.6,71.9,30.02,WSW,242,6.0,11.0,80,0.00,,SKC,0.00,VWS V13.00,2013-07-21 10:46:00,
2013-07-21 06:51:00,78.7,72.0,30.02,WSW,242,8.0,12.0,80,0.00,,SKC,0.00,VWS V13.00,2013-07-21 10:51:00,
2013-07-21 06:56:00,78.7,72.0,30.02,SW,222,3.0,10.0,80,0.00,,SKC,0.00,VWS V13.00,2013-07-21 10:56:00,
2013-07-21 07:01:00,78.7,72.0,30.02,SSW,208,6.0,11.0,80,0.00,,SKC,0.00,VWS V13.00,2013-07-21 11:01:00,
2013-07-21 07:06:00,78.7,72.0,30.02,WSW,245,9.0,12.0,80,0.00,,SKC,0.00,VWS V13.00,2013-07-21 11:06:00,
2013-07-21 07:11:00,78.8,72.1,30.02,WSW,242,5.0,11.0,80,0.00,,SKC,0.00,VWS V13.00,2013-07-21 11:11:00,
2013-07-21 07:16:00,79.0,72.3,30.02,WSW,253,8.0,10.0,80,0.00,,SKC,0.00,VWS V13.00,2013-07-21 11:16:00,
2013-07-21 07:21:00,79.2,72.5,30.02,SW,234,3.0,10.0,80,0.00,,SKC,0.00,VWS V13.00,2013-07-21 11:21:00,
2013-07-21 07:26:00,79.3,72.6,30.02,West,261,8.0,11.0,80,0.00,,SKC,0.00,VWS V13.00,2013-07-21 11:26:00,
2013-07-21 07:31:00,79.3,72.6,30.02,West,271,1.0,7.0,80,0.00,,SKC,0.00,VWS V13.00,2013-07-21 11:31:00,
2013-07-21 07:36:00,79.3,72.6,30.02,WSW,256,3.0,6.0,80,0.00,,SKC,0.00,VWS V13.00,2013-07-21 11:36:00,
2013-07-21 07:41:00,79.2,72.5,30.02,WNW,283,4.0,5.0,80,0.00,,SKC,0.00,VWS V13.00,2013-07-21 11:41:00,
2013-07-21 07:46:00,79.2,72.5,30.02,WSW,257,3.0,6.0,80,0.03,,SKC,0.03,VWS V13.00,2013-07-21 11:46:00,
2013-07-21 07:51:00,79.0,72.3,30.02,West,260,5.0,6.0,80,0.04,,SKC,0.04,VWS V13.00,2013-07-21 11:51:00,
2013-07-21 07:56:00,78.7,72.0,30.02,WSW,248,3.0,9.0,80,0.04,,SKC,0.04,VWS V13.00,2013-07-21 11:56:00,
2013-07-21 08:01:00,78.7,72.0,30.02,SW,234,3.0,6.0,80,0.04,,SKC,0.04,VWS V13.00,2013-07-21 12:01:00,
2013-07-21 08:06:00,78.4,71.7,30.02,WSW,246,3.0,5.0,80,0.04,,SKC,0.04,VWS V13.00,2013-07-21 12:06:00,
2013-07-21 08:11:00,78.3,71.6,30.03,WSW,238,0.0,4.0,80,0.04,,SKC,0.04,VWS V13.00,2013-07-21 12:11:00,
2013-07-21 08:16:00,78.2,71.5,30.03,WSW,250,1.0,3.0,80,0.04,,SKC,0.04,VWS V13.00,2013-07-21 12:16:00,
2013-07-21 08:21:00,78.1,71.4,30.03,WSW,253,2.0,6.0,80,0.04,,SKC,0.04,VWS V13.00,2013-07-21 12:21:00,
2013-07-21 08:26:00,78.0,71.3,30.03,WSW,253,0.0,4.0,80,0.04,,SKC,0.04,VWS V13.00,2013-07-21 12:26:00,
2013-07-21 08:31:00,78.0,71.3,30.03,WSW,244,1.0,5.0,80,0.04,,SKC,0.04,VWS V13.00,2013-07-21 12:31:00,
2013-07-21 08:36:00,77.9,71.2,30.03,West,260,0.0,5.0,80,0.04,,SKC,0.04,VWS V13.00,2013-07-21 12:36:00,
2013-07-21 08:41:00,77.8,71.1,30.03,WSW,238,5.0,6.0,80,0.04,,SKC,0.04,VWS V13.00,2013-07-21 12:41:00,
2013-07-21 08:46:00,78.1,71.8,30.03,West,260,3.0,7.0,81,0.04,,SKC,0.04,VWS V13.00,2013-07-21 12:46:00,
2013-07-21 08:51:00,78.5,72.2,30.03,WSW,254,2.0,7.0,81,0.01,,SKC,0.04,VWS V13.00,2013-07-21 12:51:00,
2013-07-21 08:56:00,78.7,72.4,30.03,SW,218,3.0,11.0,81,0.00,,SKC,0.04,VWS V13.00,2013-07-21 12:56:00,
2013-07-21 09:01:00,79.0,72.7,30.03,SSW,209,3.0,10.0,81,0.00,,SKC,0.04,VWS V13.00,2013-07-21 13:01:00,
2013-07-21 09:06:00,79.2,72.9,30.03,SW,231,6.0,10.0,81,0.00,,SKC,0.04,VWS V13.00,2013-07-21 13:06:00,
2013-07-21 09:11:00,79.3,73.0,30.04,West,267,8.0,10.0,81,0.00,,SKC,0.04,VWS V13.00,2013-07-21 13:11:00,
2013-07-21 09:16:00,79.5,73.2,30.03,WSW,248,0.0,9.0,81,0.00,,SKC,0.04,VWS V13.00,2013-07-21 13:16:00,
2013-07-21 09:21:00,79.8,73.4,30.03,WSW,242,5.0,10.0,81,0.00,,SKC,0.04,VWS V13.00,2013-07-21 13:21:00,
2013-07-21 09:26:00,80.1,73.8,30.03,WSW,257,3.0,10.0,81,0.00,,SKC,0.04,VWS V13.00,2013-07-21 13:26:00,
2013-07-21 09:31:00,80.2,73.8,30.03,SW,219,5.0,9.0,81,0.00,,SKC,0.04,VWS V13.00,2013-07-21 13:31:00,
2013-07-21 09:36:00,80.3,73.6,30.03,SW,218,3.0,11.0,80,0.00,,SKC,0.04,VWS V13.00,2013-07-21 13:36:00,
2013-07-21 09:41:00,80.3,73.6,30.03,West,263,9.0,10.0,80,0.00,,SKC,0.04,VWS V13.00,2013-07-21 13:41:00,
2013-07-21 09:46:00,80.3,73.6,30.03,WSW,248,8.0,10.0,80,0.00,,SKC,0.04,VWS V13.00,2013-07-21 13:46:00,
2013-07-21 09:51:00,80.6,73.9,30.03,South,177,7.0,10.0,80,0.00,,SKC,0.04,VWS V13.00,2013-07-21 13:51:00,
2013-07-21 09:56:00,80.7,74.0,30.03,West,265,5.0,12.0,80,0.00,,SKC,0.04,VWS V13.00,2013-07-21 13:56:00,
2013-07-21 10:01:00,80.9,74.2,30.03,SW,220,8.0,13.0,80,0.00,,SKC,0.04,VWS V13.00,2013-07-21 14:01:00,
2013-07-21 10:06:00,81.0,74.2,30.03,SSW,198,6.0,16.0,80,0.00,,SKC,0.04,VWS V13.00,2013-07-21 14:06:00,
2013-07-21 10:11:00,81.0,74.2,30.03,WSW,238,5.0,14.0,80,0.00,,SKC,0.04,VWS V13.00,2013-07-21 14:11:00,
2013-07-21 10:16:00,81.0,74.2,30.03,SW,234,8.0,13.0,80,0.00,,SKC,0.04,VWS V13.00,2013-07-21 14:16:00,
2013-07-21 10:21:00,81.1,74.3,30.03,WSW,247,6.0,14.0,80,0.00,,SKC,0.04,VWS V13.00,2013-07-21 14:21:00,
2013-07-21 10:26:00,81.4,74.6,30.04,WSW,238,7.0,16.0,80,0.00,,SKC,0.04,VWS V13.00,2013-07-21 14:26:00,
2013-07-21 10:31:00,81.7,74.9,30.04,WSW,251,9.0,17.0,80,0.00,,SKC,0.04,VWS V13.00,2013-07-21 14:31:00,
2013-07-21 10:36:00,81.7,74.9,30.04,SW,232,7.0,15.0,80,0.00,,SKC,0.04,VWS V13.00,2013-07-21 14:36:00,
2013-07-21 10:41:00,81.7,74.9,30.04,SW,236,9.0,14.0,80,0.00,,SKC,0.04,VWS V13.00,2013-07-21 14:41:00,
2013-07-21 10:46:00,81.7,74.9,30.04,SW,229,7.0,15.0,80,0.00,,SKC,0.04,VWS V13.00,2013-07-21 14:46:00,
2013-07-21 10:51:00,81.8,75.0,30.04,SW,219,12.0,19.0,80,0.00,,SKC,0.04,VWS V13.00,2013-07-21 14:51:00,
2013-07-21 10:56:00,81.9,74.8,30.04,SSW,200,7.0,15.0,79,0.00,,SKC,0.04,VWS V13.00,2013-07-21 14:56:00,
2013-07-21 11:01:00,82.2,75.0,30.04,WSW,247,8.0,16.0,79,0.00,,SKC,0.04,VWS V13.00,2013-07-21 15:01:00,
2013-07-21 11:06:00,82.3,75.1,30.04,SW,225,9.0,20.0,79,0.00,,SKC,0.04,VWS V13.00,2013-07-21 15:06:00,
2013-07-21 11:11:00,82.0,74.8,30.04,WSW,246,11.0,16.0,79,0.00,,SKC,0.04,VWS V13.00,2013-07-21 15:11:00,
2013-07-21 11:16:00,82.0,74.8,30.04,SW,220,6.0,16.0,79,0.00,,SKC,0.04,VWS V13.00,2013-07-21 15:16:00,
2013-07-21 11:21:00,82.2,75.0,30.04,SSW,205,9.0,15.0,79,0.00,,SKC,0.04,VWS V13.00,2013-07-21 15:21:00,
2013-07-21 11:26:00,82.2,75.0,30.04,SW,217,3.0,14.0,79,0.00,,SKC,0.04,VWS V13.00,2013-07-21 15:26:00,
2013-07-21 11:31:00,82.3,75.1,30.04,SSE,166,8.0,14.0,79,0.00,,SKC,0.04,VWS V13.00,2013-07-21 15:31:00,
2013-07-21 11:36:00,82.4,75.2,30.04,SW,221,3.0,15.0,79,0.00,,SKC,0.04,VWS V13.00,2013-07-21 15:36:00,
2013-07-21 11:41:00,82.3,75.1,30.05,SW,225,14.0,17.0,79,0.00,,SKC,0.04,VWS V13.00,2013-07-21 15:41:00,
2013-07-21 11:46:00,82.4,75.2,30.04,SW,216,9.0,15.0,79,0.00,,SKC,0.04,VWS V13.00,2013-07-21 15:46:00,
2013-07-21 11:51:00,82.5,74.9,30.04,West,265,12.0,16.0,78,0.00,,SKC,0.04,VWS V13.00,2013-07-21 15:51:00,
2013-07-21 11:56:00,82.5,74.9,30.04,SW,225,12.0,16.0,78,0.00,,SKC,0.04,VWS V13.00,2013-07-21 15:56:00,
2013-07-21 12:01:00,82.7,75.2,30.04,South,189,14.0,15.0,78,0.00,,SKC,0.04,VWS V13.00,2013-07-21 16:01:00,
2013-07-21 12:06:00,82.7,75.2,30.04,SSW,206,8.0,18.0,78,0.00,,SKC,0.04,VWS V13.00,2013-07-21 16:06:00,
2013-07-21 12:11:00,82.8,75.2,30.05,SSW,208,11.0,17.0,78,0.00,,SKC,0.04,VWS V13.00,2013-07-21 16:11:00,
2013-07-21 12:16:00,83.1,75.5,30.05,West,265,11.0,15.0,78,0.00,,SKC,0.04,VWS V13.00,2013-07-21 16:16:00,
2013-07-21 12:21:00,83.3,75.7,30.04,South,180,7.0,18.0,78,0.00,,SKC,0.04,VWS V13.00,2013-07-21 16:21:00,
2013-07-21 12:26:00,83.4,75.8,30.04,SW,232,15.0,16.0,78,0.00,,SKC,0.04,VWS V13.00,2013-07-21 16:26:00,
2013-07-21 12:31:00,83.6,76.0,30.04,WSW,238,8.0,15.0,78,0.00,,SKC,0.04,VWS V13.00,2013-07-21 16:31:00,
2013-07-21 12:36:00,83.6,76.0,30.05,SW,221,13.0,15.0,78,0.00,,SKC,0.04,VWS V13.00,2013-07-21 16:36:00,
2013-07-21 12:41:00,83.4,75.8,30.05,SW,214,9.0,14.0,78,0.00,,SKC,0.04,VWS V13.00,2013-07-21 16:41:00,
2013-07-21 12:46:00,83.3,75.3,30.05,WSW,254,10.0,15.0,77,0.00,,SKC,0.04,VWS V13.00,2013-07-21 16:46:00,
2013-07-21 12:52:00,83.2,75.6,30.04,SW,215,10.0,15.0,78,0.00,,SKC,0.04,VWS V13.00,2013-07-21 16:52:00,
2013-07-21 12:57:00,83.4,75.4,30.04,SW,232,8.0,14.0,77,0.00,,SKC,0.04,VWS V13.00,2013-07-21 16:57:00,
2013-07-21 13:02:00,83.3,75.3,30.04,WSW,246,8.0,14.0,77,0.00,,SKC,0.04,VWS V13.00,2013-07-21 17:02:00,
2013-07-21 13:07:00,83.5,75.5,30.04,SW,220,9.0,16.0,77,0.00,,SKC,0.04,VWS V13.00,2013-07-21 17:07:00,
2013-07-21 13:12:00,83.6,75.6,30.04,SSW,209,8.0,17.0,77,0.00,,SKC,0.04,VWS V13.00,2013-07-21 17:12:00,
2013-07-21 13:17:00,83.8,75.8,30.04,SSW,211,8.0,13.0,77,0.00,,SKC,0.04,VWS V13.00,2013-07-21 17:17:00,
2013-07-21 13:22:00,83.7,75.7,30.04,SSW,194,8.0,12.0,77,0.00,,SKC,0.04,VWS V13.00,2013-07-21 17:22:00,
2013-07-21 13:27:00,83.5,75.5,30.04,SSW,200,6.0,12.0,77,0.00,,SKC,0.04,VWS V13.00,2013-07-21 17:27:00,
2013-07-21 13:32:00,83.4,75.4,30.04,South,190,10.0,10.0,77,0.00,,SKC,0.04,VWS V13.00,2013-07-21 17:32:00,
2013-07-21 13:37:00,83.5,75.5,30.03,SSW,205,9.0,9.0,77,0.00,,SKC,0.04,VWS V13.00,2013-07-21 17:37:00,
2013-07-21 13:42:00,83.5,75.5,30.03,SSW,203,4.0,12.0,77,0.00,,SKC,0.04,VWS V13.00,2013-07-21 17:42:00,
2013-07-21 13:47:00,83.2,75.2,30.03,SSW,196,3.0,13.0,77,0.00,,SKC,0.04,VWS V13.00,2013-07-21 17:47:00,
2013-07-21 13:52:00,83.2,75.2,30.03,SSW,207,9.0,13.0,77,0.00,,SKC,0.04,VWS V13.00,2013-07-21 17:52:00,
2013-07-21 13:57:00,83.2,75.2,30.03,SSW,207,5.0,12.0,77,0.00,,SKC,0.04,VWS V13.00,2013-07-21 17:57:00,
2013-07-21 14:02:00,83.6,75.6,30.03,SW,231,4.0,12.0,77,0.00,,SKC,0.04,VWS V13.00,2013-07-21 18:02:00,
2013-07-21 14:07:00,83.8,75.8,30.03,South,191,7.0,12.0,77,0.00,,SKC,0.04,VWS V13.00,2013-07-21 18:07:00,
2013-07-21 14:12:00,83.8,75.8,30.03,South,181,6.0,14.0,77,0.00,,SKC,0.04,VWS V13.00,2013-07-21 18:12:00,
2013-07-21 14:17:00,83.9,75.9,30.02,SW,215,8.0,14.0,77,0.00,,SKC,0.04,VWS V13.00,2013-07-21 18:17:00,
2013-07-21 14:22:00,83.9,75.9,30.02,SW,222,2.0,10.0,77,0.00,,SKC,0.04,VWS V13.00,2013-07-21 18:22:00,
2013-07-21 14:27:00,84.1,76.1,30.01,South,178,12.0,15.0,77,0.00,,SKC,0.04,VWS V13.00,2013-07-21 18:27:00,
2013-07-21 14:32:00,84.3,76.3,30.01,South,182,9.0,14.0,77,0.00,,SKC,0.04,VWS V13.00,2013-07-21 18:32:00,
2013-07-21 14:37:00,84.2,76.2,30.01,South,173,4.0,15.0,77,0.00,,SKC,0.04,VWS V13.00,2013-07-21 18:37:00,
2013-07-21 14:42:00,83.9,75.9,30.01,SSW,202,12.0,13.0,77,0.00,,SKC,0.04,VWS V13.00,2013-07-21 18:42:00,
2013-07-21 14:47:00,83.7,75.7,30.01,SE,146,12.0,12.0,77,0.00,,SKC,0.04,VWS V13.00,2013-07-21 18:47:00,
2013-07-21 14:52:00,83.7,75.7,30.01,West,267,0.0,5.0,77,0.00,,SKC,0.04,VWS V13.00,2013-07-21 18:52:00,
2013-07-21 14:57:00,84.1,76.1,30.01,South,173,8.0,10.0,77,0.00,,SKC,0.04,VWS V13.00,2013-07-21 18:57:00,
2013-07-21 15:02:00,84.2,76.2,30.00,South,173,11.0,11.0,77,0.00,,SKC,0.04,VWS V13.00,2013-07-21 19:02:00,
2013-07-21 15:07:00,84.3,76.3,30.00,South,188,13.0,13.0,77,0.00,,SKC,0.04,VWS V13.00,2013-07-21 19:07:00,
2013-07-21 15:12:00,84.3,76.3,30.00,SSW,205,9.0,11.0,77,0.00,,SKC,0.04,VWS V13.00,2013-07-21 19:12:00,
2013-07-21 15:17:00,84.4,76.4,30.00,SW,216,11.0,11.0,77,0.00,,SKC,0.04,VWS V13.00,2013-07-21 19:17:00,
2013-07-21 15:22:00,84.2,76.2,30.00,SSW,207,9.0,10.0,77,0.00,,SKC,0.04,VWS V13.00,2013-07-21 19:22:00,
2013-07-21 15:27:00,84.2,76.2,30.00,South,184,11.0,11.0,77,0.00,,SKC,0.04,VWS V13.00,2013-07-21 19:27:00,
2013-07-21 15:32:00,84.2,76.2,30.00,SSW,198,6.0,14.0,77,0.00,,SKC,0.04,VWS V13.00,2013-07-21 19:32:00,
2013-07-21 15:38:00,84.2,76.2,30.00,SSW,196,9.0,10.0,77,0.00,,SKC,0.04,VWS V13.00,2013-07-21 19:38:00,
2013-07-21 15:43:00,84.3,76.3,30.00,SSW,200,11.0,15.0,77,0.00,,SKC,0.04,VWS V13.00,2013-07-21 19:43:00,
2013-07-21 15:48:00,84.3,76.3,30.00,SSW,207,6.0,13.0,77,0.00,,SKC,0.04,VWS V13.00,2013-07-21 19:48:00,
2013-07-21 15:53:00,84.2,76.2,30.00,South,188,11.0,11.0,77,0.00,,SKC,0.04,VWS V13.00,2013-07-21 19:53:00,
2013-07-21 15:58:00,84.3,76.3,30.00,SSE,158,6.0,13.0,77,0.00,,SKC,0.04,VWS V13.00,2013-07-21 19:58:00,
2013-07-21 16:03:00,84.3,76.3,29.99,South,171,5.0,10.0,77,0.00,,SKC,0.04,VWS V13.00,2013-07-21 20:03:00,
2013-07-21 16:08:00,84.0,76.0,29.99,SSW,196,9.0,11.0,77,0.00,,SKC,0.04,VWS V13.00,2013-07-21 20:08:00,
2013-07-21 16:13:00,83.9,75.9,29.99,SW,221,6.0,10.0,77,0.00,,SKC,0.04,VWS V13.00,2013-07-21 20:13:00,
2013-07-21 16:18:00,84.0,76.0,29.99,South,187,8.0,12.0,77,0.00,,SKC,0.04,VWS V13.00,2013-07-21 20:18:00,
2013-07-21 16:23:00,83.9,75.9,29.98,SSW,198,13.0,13.0,77,0.00,,SKC,0.04,VWS V13.00,2013-07-21 20:23:00,
2013-07-21 16:28:00,83.9,75.9,29.98,SW,223,5.0,12.0,77,0.00,,SKC,0.04,VWS V13.00,2013-07-21 20:28:00,
2013-07-21 16:33:00,84.0,76.0,29.98,SSW,196,9.0,10.0,77,0.00,,SKC,0.04,VWS V13.00,2013-07-21 20:33:00,
2013-07-21 16:38:00,84.0,76.0,29.98,South,178,8.0,13.0,77,0.00,,SKC,0.04,VWS V13.00,2013-07-21 20:38:00,
2013-07-21 16:43:00,84.0,76.0,29.98,South,177,6.0,13.0,77,0.00,,SKC,0.04,VWS V13.00,2013-07-21 20:43:00,
2013-07-21 16:48:00,83.8,75.8,29.97,SSW,211,7.0,14.0,77,0.00,,SKC,0.04,VWS V13.00,2013-07-21 20:48:00,
2013-07-21 16:53:00,83.8,75.8,29.97,NW,311,3.0,12.0,77,0.00,,SKC,0.04,VWS V13.00,2013-07-21 20:53:00,
2013-07-21 16:58:00,83.7,75.7,29.97,SSE,152,2.0,14.0,77,0.00,,SKC,0.04,VWS V13.00,2013-07-21 20:58:00,
2013-07-21 17:03:00,83.7,75.7,29.97,South,173,2.0,17.0,77,0.00,,SKC,0.04,VWS V13.00,2013-07-21 21:03:00,
2013-07-21 17:08:00,83.7,75.7,29.97,SSE,155,7.0,12.0,77,0.00,,SKC,0.04,VWS V13.00,2013-07-21 21:08:00,
2013-07-21 17:13:00,83.6,75.6,29.97,SSE,157,2.0,13.0,77,0.00,,SKC,0.04,VWS V13.00,2013-07-21 21:13:00,
2013-07-21 17:18:00,83.4,75.4,29.97,SSW,196,8.0,18.0,77,0.00,,SKC,0.04,VWS V13.00,2013-07-21 21:18:00,
2013-07-21 17:23:00,83.4,75.4,29.97,South,184,10.0,11.0,77,0.00,,SKC,0.04,VWS V13.00,2013-07-21 21:23:00,
2013-07-21 17:28:00,83.4,75.4,29.96,SW,215,6.0,14.0,77,0.00,,SKC,0.04,VWS V13.00,2013-07-21 21:28:00,
2013-07-21 17:33:00,83.5,75.5,29.96,SW,227,14.0,14.0,77,0.00,,SKC,0.04,VWS V13.00,2013-07-21 21:33:00,
2013-07-21 17:38:00,83.5,75.5,29.97,SSW,194,11.0,14.0,77,0.00,,SKC,0.04,VWS V13.00,2013-07-21 21:38:00,
2013-07-21 17:43:00,83.4,75.4,29.96,SSW,211,7.0,13.0,77,0.00,,SKC,0.04,VWS V13.00,2013-07-21 21:43:00,
2013-07-21 17:48:00,83.2,75.2,29.96,SSW,213,13.0,14.0,77,0.00,,SKC,0.04,VWS V13.00,2013-07-21 21:48:00,
2013-07-21 17:53:00,83.1,75.2,29.97,SSW,198,9.0,14.0,77,0.00,,SKC,0.04,VWS V13.00,2013-07-21 21:53:00,
2013-07-21 17:58:00,82.9,75.3,29.96,South,176,10.0,17.0,78,0.00,,SKC,0.04,VWS V13.00,2013-07-21 21:58:00,
2013-07-21 18:03:00,82.7,74.8,29.96,SW,231,14.0,16.0,77,0.00,,SKC,0.04,VWS V13.00,2013-07-21 22:03:00,
2013-07-21 18:08:00,82.2,74.3,29.96,SW,236,7.0,16.0,77,0.00,,SKC,0.04,VWS V13.00,2013-07-21 22:08:00,
2013-07-21 18:13:00,81.9,74.4,29.96,South,186,7.0,17.0,78,0.00,,SKC,0.04,VWS V13.00,2013-07-21 22:13:00,
2013-07-21 18:18:00,81.8,74.3,29.96,SSE,152,7.0,15.0,78,0.00,,SKC,0.04,VWS V13.00,2013-07-21 22:18:00,
2013-07-21 18:23:00,81.7,74.2,29.96,SSW,210,15.0,15.0,78,0.00,,SKC,0.04,VWS V13.00,2013-07-21 22:23:00,
2013-07-21 18:28:00,81.6,74.1,29.96,WSW,240,10.0,14.0,78,0.00,,SKC,0.04,VWS V13.00,2013-07-21 22:28:00,
2013-07-21 18:33:00,81.6,74.1,29.96,SW,217,6.0,13.0,78,0.00,,SKC,0.04,VWS V13.00,2013-07-21 22:33:00,
2013-07-21 18:38:00,81.5,74.0,29.96,WSW,254,6.0,17.0,78,0.00,,SKC,0.04,VWS V13.00,2013-07-21 22:38:00,
2013-07-21 18:43:00,81.4,73.9,29.96,South,173,4.0,15.0,78,0.00,,SKC,0.04,VWS V13.00,2013-07-21 22:43:00,
2013-07-21 18:48:00,81.2,73.7,29.97,SSW,200,4.0,15.0,78,0.00,,SKC,0.04,VWS V13.00,2013-07-21 22:48:00,
2013-07-21 18:53:00,81.2,73.7,29.97,SSW,203,8.0,19.0,78,0.00,,SKC,0.04,VWS V13.00,2013-07-21 22:53:00,
2013-07-21 18:58:00,81.1,73.6,29.96,South,169,12.0,16.0,78,0.00,,SKC,0.04,VWS V13.00,2013-07-21 22:58:00,
2013-07-21 19:03:00,81.0,73.9,29.97,SSW,210,6.0,13.0,79,0.00,,SKC,0.04,VWS V13.00,2013-07-21 23:03:00,
2013-07-21 19:08:00,80.9,73.4,29.96,SSE,165,9.0,13.0,78,0.00,,SKC,0.04,VWS V13.00,2013-07-21 23:08:00,
2013-07-21 19:13:00,80.9,73.8,29.97,SW,215,7.0,18.0,79,0.00,,SKC,0.04,VWS V13.00,2013-07-21 23:13:00,
2013-07-21 19:18:00,80.8,73.7,29.96,WSW,254,4.0,11.0,79,0.00,,SKC,0.04,VWS V13.00,2013-07-21 23:18:00,
2013-07-21 19:19:00,80.8,73.7,29.96,SSW,204,11.0,17.0,79,0.00,,SKC,0.04,VWS V13.00,2013-07-21 23:19:00,
2013-07-21 19:24:00,80.7,73.6,29.97,SSW,211,15.0,16.0,79,0.00,,SKC,0.04,VWS V13.00,2013-07-21 23:24:00,
2013-07-21 19:29:00,80.5,73.4,29.97,SW,221,6.0,14.0,79,0.00,,SKC,0.04,VWS V13.00,2013-07-21 23:29:00,
2013-07-21 19:34:00,80.5,73.4,29.97,South,183,16.0,16.0,79,0.00,,SKC,0.04,VWS V13.00,2013-07-21 23:34:00,
2013-07-21 19:39:00,80.4,73.3,29.97,SSW,202,8.0,16.0,79,0.00,,SKC,0.04,VWS V13.00,2013-07-21 23:39:00,
2013-07-21 19:44:00,80.3,73.2,29.97,SW,223,6.0,14.0,79,0.00,,SKC,0.04,VWS V13.00,2013-07-21 23:44:00,
2013-07-21 19:49:00,80.3,73.2,29.97,SSW,212,6.0,15.0,79,0.00,,SKC,0.04,VWS V13.00,2013-07-21 23:49:00,
2013-07-21 19:54:00,80.3,73.2,29.98,SSW,211,5.0,14.0,79,0.00,,SKC,0.04,VWS V13.00,2013-07-21 23:54:00,
2013-07-21 19:59:00,80.2,73.1,29.98,South,187,6.0,16.0,79,0.00,,SKC,0.04,VWS V13.00,2013-07-21 23:59:00,
2013-07-21 20:04:00,80.2,73.1,29.98,SW,215,4.0,12.0,79,0.00,,SKC,0.04,VWS V13.00,2013-07-22 00:04:00,
2013-07-21 20:09:00,80.2,73.1,29.98,SSE,158,10.0,18.0,79,0.00,,SKC,0.04,VWS V13.00,2013-07-22 00:09:00,
2013-07-21 20:14:00,80.1,73.0,29.98,SSW,198,9.0,15.0,79,0.00,,SKC,0.04,VWS V13.00,2013-07-22 00:14:00,
2013-07-21 20:19:00,80.0,73.3,29.99,SSW,212,5.0,14.0,80,0.00,,SKC,0.04,VWS V13.00,2013-07-22 00:19:00,
2013-07-21 20:24:00,80.0,73.3,29.99,SW,234,12.0,14.0,80,0.00,,SKC,0.04,VWS V13.00,2013-07-22 00:24:00,
2013-07-21 20:29:00,80.0,73.3,29.99,South,186,10.0,15.0,80,0.00,,SKC,0.04,VWS V13.00,2013-07-22 00:29:00,
2013-07-21 20:34:00,80.0,73.3,29.99,SSW,205,5.0,15.0,80,0.00,,SKC,0.04,VWS V13.00,2013-07-22 00:34:00,
2013-07-21 20:39:00,79.9,73.2,29.99,SSW,208,7.0,13.0,80,0.00,,SKC,0.04,VWS V13.00,2013-07-22 00:39:00,
2013-07-21 20:44:00,79.9,73.2,29.99,SW,233,10.0,15.0,80,0.00,,SKC,0.04,VWS V13.00,2013-07-22 00:44:00,
2013-07-21 20:49:00,79.8,73.1,29.99,WSW,240,6.0,12.0,80,0.00,,SKC,0.04,VWS V13.00,2013-07-22 00:49:00,
2013-07-21 20:54:00,79.8,73.1,29.99,SW,219,10.0,16.0,80,0.00,,SKC,0.04,VWS V13.00,2013-07-22 00:54:00,
2013-07-21 20:59:00,79.8,73.1,29.99,SSW,203,7.0,13.0,80,0.00,,SKC,0.04,VWS V13.00,2013-07-22 00:59:00,
2013-07-21 21:04:00,79.8,73.1,29.99,SW,224,8.0,12.0,80,0.00,,SKC,0.04,VWS V13.00,2013-07-22 01:04:00,
2013-07-21 21:09:00,79.8,73.1,29.99,SSW,194,5.0,12.0,80,0.00,,SKC,0.04,VWS V13.00,2013-07-22 01:09:00,
2013-07-21 21:14:00,79.8,73.1,29.99,SSW,213,8.0,13.0,80,0.00,,SKC,0.04,VWS V13.00,2013-07-22 01:14:00,
2013-07-21 21:19:00,79.8,73.1,29.99,South,185,5.0,11.0,80,0.00,,SKC,0.04,VWS V13.00,2013-07-22 01:19:00,
2013-07-21 21:24:00,79.9,73.2,30.00,SW,221,9.0,13.0,80,0.00,,SKC,0.04,VWS V13.00,2013-07-22 01:24:00,
2013-07-21 21:29:00,79.9,73.2,30.00,South,180,6.0,10.0,80,0.00,,SKC,0.04,VWS V13.00,2013-07-22 01:29:00,
2013-07-21 21:34:00,80.0,73.3,30.00,SW,221,4.0,11.0,80,0.00,,SKC,0.04,VWS V13.00,2013-07-22 01:34:00,
2013-07-21 21:39:00,80.0,73.3,30.00,SW,215,6.0,13.0,80,0.00,,SKC,0.04,VWS V13.00,2013-07-22 01:39:00,
2013-07-21 21:44:00,80.0,73.3,30.00,SW,223,6.0,12.0,80,0.00,,SKC,0.04,VWS V13.00,2013-07-22 01:44:00,
2013-07-21 21:49:00,80.0,73.3,30.00,SW,217,6.0,12.0,80,0.00,,SKC,0.04,VWS V13.00,2013-07-22 01:49:00,
2013-07-21 21:54:00,80.0,73.3,30.00,SW,219,5.0,10.0,80,0.00,,SKC,0.04,VWS V13.00,2013-07-22 01:54:00,
2013-07-21 21:59:00,80.0,73.7,30.00,WSW,237,6.0,7.0,81,0.00,,SKC,0.04,VWS V13.00,2013-07-22 01:59:00,
2013-07-21 22:04:00,79.9,73.2,30.00,SW,225,6.0,14.0,80,0.00,,SKC,0.04,VWS V13.00,2013-07-22 02:04:00,
2013-07-21 22:09:00,79.8,73.1,30.00,WSW,253,3.0,11.0,80,0.00,,SKC,0.04,VWS V13.00,2013-07-22 02:09:00,
2013-07-21 22:14:00,79.8,73.1,30.00,SSW,205,4.0,11.0,80,0.00,,SKC,0.04,VWS V13.00,2013-07-22 02:14:00,
2013-07-21 22:19:00,79.7,73.0,30.00,SSW,200,5.0,10.0,80,0.00,,SKC,0.04,VWS V13.00,2013-07-22 02:19:00,
2013-07-21 22:24:00,79.6,73.3,30.00,SW,228,3.0,11.0,81,0.00,,SKC,0.04,VWS V13.00,2013-07-22 02:24:00,
2013-07-21 22:29:00,79.6,73.3,30.00,SW,216,7.0,15.0,81,0.00,,SKC,0.04,VWS V13.00,2013-07-22 02:29:00,
2013-07-21 22:34:00,79.5,73.2,30.00,WSW,243,5.0,9.0,81,0.00,,SKC,0.04,VWS V13.00,2013-07-22 02:34:00,
2013-07-21 22:39:00,79.5,73.2,30.00,SW,225,4.0,10.0,81,0.00,,SKC,0.04,VWS V13.00,2013-07-22 02:39:00,
2013-07-21 22:44:00,79.5,73.2,30.00,SW,234,11.0,11.0,81,0.00,,SKC,0.04,VWS V13.00,2013-07-22 02:44:00,
2013-07-21 22:49:00,79.4,73.1,30.00,SW,233,4.0,11.0,81,0.00,,SKC,0.04,VWS V13.00,2013-07-22 02:49:00,
2013-07-21 22:54:00,79.4,73.1,30.00,SW,232,6.0,11.0,81,0.00,,SKC,0.04,VWS V13.00,2013-07-22 02:54:00,
2013-07-21 22:59:00,79.4,73.1,30.00,SW,228,3.0,11.0,81,0.00,,SKC,0.04,VWS V13.00,2013-07-22 02:59:00,
2013-07-21 23:04:00,79.4,73.1,30.00,South,173,6.0,8.0,81,0.00,,SKC,0.04,VWS V13.00,2013-07-22 03:04:00,
2013-07-21 23:09:00,79.4,73.1,30.00,SW,224,7.0,8.0,81,0.00,,SKC,0.04,VWS V13.00,2013-07-22 03:09:00,
2013-07-21 23:14:00,79.4,73.1,30.00,SW,222,2.0,9.0,81,0.00,,SKC,0.04,VWS V13.00,2013-07-22 03:14:00,
2013-07-21 23:19:00,79.4,73.1,30.00,SW,221,5.0,10.0,81,0.00,,SKC,0.04,VWS V13.00,2013-07-22 03:19:00,
2013-07-21 23:24:00,79.3,73.0,30.00,SSW,207,4.0,6.0,81,0.00,,SKC,0.04,VWS V13.00,2013-07-22 03:24:00,
2013-07-21 23:29:00,79.3,73.0,30.00,SW,229,3.0,8.0,81,0.00,,SKC,0.04,VWS V13.00,2013-07-22 03:29:00,
2013-07-21 23:34:00,79.2,72.9,30.00,South,180,6.0,9.0,81,0.00,,SKC,0.04,VWS V13.00,2013-07-22 03:34:00,
2013-07-21 23:39:00,79.2,72.9,30.00,SW,219,8.0,12.0,81,0.00,,SKC,0.04,VWS V13.00,2013-07-22 03:39:00,
2013-07-21 23:44:00,79.1,72.8,30.00,South,191,4.0,11.0,81,0.00,,SKC,0.04,VWS V13.00,2013-07-22 03:44:00,
2013-07-21 23:49:00,79.1,72.8,30.00,SW,225,6.0,9.0,81,0.00,,SKC,0.04,VWS V13.00,2013-07-22 03:49:00,
2013-07-21 23:54:00,79.1,72.8,30.00,SW,214,4.0,8.0,81,0.00,,SKC,0.04,VWS V13.00,2013-07-22 03:54:00,
2013-07-21 23:59:00,79.0,72.7,30.00,SW,216,7.0,9.0,81,0.00,,SKC,0.04,VWS V13.00,2013-07-22 03:59:00,